Time;durP1;ratioP1;P1;durP2;ratioP2;P2;SDS_P1;SDS_P2;PMS_P1;PMS_P2;Temp;Humidity;BMP_temperature;BMP_pressure;BME280_temperature;BME280_humidity;BME280_pressure;Samples;Min_cycle;Max_cycle;Signal;HPM_P1;HPM_P2
2022/11/04 00:00:12;;;;;;;19.35;5.97;;;;;;;7.37;100.00;99999.69;5025230;28;20048;-72
2022/11/04 00:02:37;;;;;;;16.40;4.80;;;;;;;7.31;100.00;100011.06;5024696;28;20037;-71
2022/11/04 00:05:02;;;;;;;15.80;4.45;;;;;;;7.39;100.00;100008.44;5020497;28;20045;-73
2022/11/04 00:10:11;;;;;;;16.00;5.00;;;;;;;7.36;100.00;99999.69;5021719;28;20450;-73
2022/11/04 00:12:37;;;;;;;15.65;4.63;;;;;;;7.35;100.00;100008.44;5023814;28;20026;-74
2022/11/04 00:17:18;;;;;;;17.95;5.32;;;;;;;7.37;100.00;100011.94;5020179;28;20084;-73
2022/11/04 00:17:48;;;;;;;19.88;6.97;;;;;;;7.46;100.00;100009.38;5023785;28;20042;-74
2022/11/04 00:28:43;;;;;;;41.85;23.35;;;;;;;8.06;100.00;100033.19;5043861;28;20495;-72
2022/11/04 00:33:56;;;;;;;39.80;23.02;;;;;;;8.03;100.00;100034.06;5043793;28;20098;-74
2022/11/04 00:36:23;;;;;;;36.90;22.02;;;;;;;8.03;100.00;100031.44;5043729;28;20451;-74
2022/11/04 00:38:48;;;;;;;37.22;22.17;;;;;;;8.02;100.00;100029.69;5044210;28;20079;-74
2022/11/04 00:41:25;;;;;;;38.40;22.05;;;;;;;7.99;100.00;100031.44;5042901;28;20025;-73
2022/11/04 00:43:57;;;;;;;35.47;22.13;;;;;;;7.96;100.00;100028.78;5043578;28;20029;-71
2022/11/04 00:46:22;;;;;;;37.17;20.80;;;;;;;7.98;100.00;100035.81;5043607;28;20503;-70
2022/11/04 00:48:47;;;;;;;37.92;22.85;;;;;;;7.97;100.00;100039.31;5043896;28;20108;-75
2022/11/04 00:51:13;;;;;;;35.85;21.42;;;;;;;7.97;100.00;100041.09;5042366;28;20111;-73
2022/11/04 00:53:38;;;;;;;34.58;21.17;;;;;;;7.96;100.00;100047.22;5044912;28;20107;-74
2022/11/04 00:56:04;;;;;;;37.90;21.90;;;;;;;7.98;100.00;100058.63;5041960;28;20095;-73
2022/11/04 00:58:29;;;;;;;37.15;21.60;;;;;;;7.98;100.00;100056.88;5044752;28;20487;-72
2022/11/04 01:00:55;;;;;;;37.17;21.42;;;;;;;7.97;100.00;100063.00;5042514;28;20503;-74
2022/11/04 01:03:20;;;;;;;35.75;21.17;;;;;;;7.94;100.00;100057.75;5042883;28;20049;-74
2022/11/04 01:05:45;;;;;;;36.25;21.10;;;;;;;7.88;100.00;100065.63;5043849;28;20048;-74
2022/11/04 01:08:11;;;;;;;36.33;21.27;;;;;;;7.89;100.00;100061.22;5041949;28;20026;-73
2022/11/04 01:10:43;;;;;;;36.28;21.55;;;;;;;7.84;100.00;100058.59;5045408;28;20028;-74
2022/11/04 01:13:09;;;;;;;36.17;21.33;;;;;;;7.78;100.00;100055.94;5037945;28;20025;-74
2022/11/04 01:15:36;;;;;;;35.17;20.48;;;;;;;7.70;100.00;100068.19;5044726;28;20426;-74
2022/11/04 01:18:02;;;;;;;37.17;21.02;;;;;;;7.67;100.00;100069.06;5041506;28;20065;-73
2022/11/04 01:20:27;;;;;;;37.97;20.42;;;;;;;7.70;100.00;100068.19;5043921;28;20108;-74
2022/11/04 01:22:53;;;;;;;36.53;20.75;;;;;;;7.70;100.00;100073.44;5042822;28;20044;-74
2022/11/04 01:25:18;;;;;;;37.92;20.58;;;;;;;7.73;100.00;100089.25;5042689;28;20543;-75
2022/11/04 01:27:43;;;;;;;37.88;20.80;;;;;;;7.72;100.00;100080.47;5043961;28;20025;-74
2022/11/04 01:30:09;;;;;;;36.85;21.13;;;;;;;7.71;100.00;100075.22;5041171;28;20064;-74
2022/11/04 01:32:35;;;;;;;37.10;19.65;;;;;;;7.74;100.00;100076.09;5044608;28;20083;-70
2022/11/04 01:35:00;;;;;;;35.10;18.63;;;;;;;7.79;100.00;100077.00;5041380;28;20017;-74
2022/11/04 01:37:25;;;;;;;36.15;19.70;;;;;;;7.71;100.00;100065.56;5043181;28;20022;-74
2022/11/04 01:39:51;;;;;;;36.35;18.95;;;;;;;7.67;100.00;100076.94;5043014;28;20031;-74
2022/11/04 01:42:20;;;;;;;34.35;18.10;;;;;;;7.61;100.00;100074.28;5042039;28;20036;-74
2022/11/04 01:45:04;;;;;;;35.92;17.98;;;;;;;7.66;100.00;100076.06;5043313;28;20029;-74
2022/11/04 01:47:39;;;;;;;32.20;16.02;;;;;;;7.54;100.00;100078.63;5042879;28;20055;-74
2022/11/04 01:50:13;;;;;;;32.60;16.23;;;;;;;7.50;100.00;100076.91;5037311;28;20029;-74
2022/11/04 01:52:52;;;;;;;32.70;16.15;;;;;;;7.46;100.00;100080.38;5037507;28;20030;-74
2022/11/04 01:55:25;;;;;;;33.10;16.98;;;;;;;7.41;100.00;100074.19;5039651;28;20126;-73
2022/11/04 01:57:54;;;;;;;31.23;15.10;;;;;;;7.43;100.00;100080.38;5042403;28;20021;-69
2022/11/04 02:00:19;;;;;;;31.08;14.95;;;;;;;7.39;100.00;100083.84;5042371;28;20095;-70
2022/11/04 02:02:57;;;;;;;31.40;14.82;;;;;;;7.32;100.00;100081.19;5043415;28;20033;-69
2022/11/04 02:05:22;;;;;;;30.23;14.52;;;;;;;7.27;100.00;100079.41;5040998;28;20082;-69
2022/11/04 02:07:50;;;;;;;30.30;13.30;;;;;;;7.22;100.00;100074.09;5042837;28;20124;-69
2022/11/04 02:10:18;;;;;;;29.88;13.35;;;;;;;7.21;100.00;100081.97;5041760;28;20061;-70
2022/11/04 02:12:50;;;;;;;28.20;12.68;;;;;;;7.17;100.00;100082.84;5043113;28;20078;-69
2022/11/04 02:15:40;;;;;;;29.83;12.65;;;;;;;7.11;100.00;100084.56;5041345;28;20021;-67
2022/11/04 02:18:14;;;;;;;27.15;12.63;;;;;;;7.10;100.00;100082.78;5037035;28;20037;-67
2022/11/04 02:21:05;;;;;;;28.35;11.80;;;;;;;7.12;100.00;100077.53;5037317;28;20530;-68
2022/11/04 02:24:08;;;;;;;28.25;12.30;;;;;;;7.06;100.00;100081.03;5041195;28;20034;-69
2022/11/04 02:27:14;;;;;;;28.77;11.85;;;;;;;7.04;100.00;100084.50;5044601;28;20037;-69
2022/11/04 02:29:58;;;;;;;26.02;10.60;;;;;;;7.04;100.00;100090.63;5037111;28;20473;-67
2022/11/04 02:32:40;;;;;;;26.40;11.48;;;;;;;6.98;100.00;100094.09;5041946;28;20430;-68
2022/11/04 02:35:24;;;;;;;24.50;10.23;;;;;;;6.98;100.00;100093.22;5036928;28;20056;-69
2022/11/04 02:38:11;;;;;;;25.27;9.98;;;;;;;6.95;100.00;100098.47;5040079;28;20026;-69
2022/11/04 02:40:55;;;;;;;25.10;10.07;;;;;;;6.98;100.00;100098.47;5037050;28;20026;-69
2022/11/04 02:43:30;;;;;;;24.92;9.57;;;;;;;6.93;100.00;100111.59;5040328;28;20393;-68
2022/11/04 02:46:03;;;;;;;22.42;8.52;;;;;;;6.96;100.00;100102.84;5041641;28;20032;-69
2022/11/04 02:48:40;;;;;;;23.52;8.65;;;;;;;6.94;100.00;100096.69;5043068;28;20022;-68
2022/11/04 02:51:11;;;;;;;22.20;8.73;;;;;;;6.87;100.00;100103.66;5036324;28;20087;-69
2022/11/04 02:53:49;;;;;;;24.08;8.70;;;;;;;6.89;100.00;100101.06;5036517;28;20056;-69
2022/11/04 02:56:18;;;;;;;23.58;8.05;;;;;;;6.88;100.00;100104.53;5038276;28;20124;-68
2022/11/04 02:58:50;;;;;;;23.65;8.18;;;;;;;6.83;100.00;100101.88;5043873;28;20033;-68
2022/11/04 03:01:17;;;;;;;;;;;;;;;6.79;100.00;100105.34;5045139;28;20021;-68
2022/11/04 03:03:47;;;;;;;22.92;7.95;;;;;;;6.74;100.00;100102.69;5046628;28;19917;-68
2022/11/04 03:06:18;;;;;;;20.83;7.45;;;;;;;6.71;100.00;100094.75;5044334;28;20037;-69
2022/11/04 03:08:47;;;;;;;24.00;8.10;;;;;;;6.68;100.00;100097.38;5046644;28;20407;-69
2022/11/04 03:11:16;;;;;;;22.10;7.45;;;;;;;6.66;100.00;100106.13;5044104;28;20029;-68
2022/11/04 03:14:06;;;;;;;23.85;8.60;;;;;;;6.58;100.00;100104.31;5046821;28;20059;-74
2022/11/04 03:16:47;;;;;;;24.13;8.43;;;;;;;6.58;100.00;100106.94;5044387;28;20134;-74
2022/11/04 03:19:25;;;;;;;23.83;7.93;;;;;;;6.58;100.00;100114.81;5038762;28;20083;-74
2022/11/04 03:22:04;;;;;;;23.35;7.78;;;;;;;6.55;100.00;100119.13;5043217;28;20040;-74
2022/11/04 03:24:30;;;;;;;23.00;7.70;;;;;;;6.56;100.00;100116.53;5044142;28;20030;-74
2022/11/04 03:27:11;;;;;;;21.92;7.93;;;;;;;6.52;100.00;100114.72;5042250;28;20041;-73
2022/11/04 03:29:43;;;;;;;23.30;8.20;;;;;;;6.47;100.00;100116.44;5037323;28;20041;-74
2022/11/04 03:32:24;;;;;;;22.65;7.63;;;;;;;6.44;100.00;100114.66;5037616;28;20071;-75
2022/11/04 03:34:50;;;;;;;23.40;7.63;;;;;;;6.42;100.00;100118.13;5042352;28;20041;-73
2022/11/04 03:37:15;;;;;;;26.05;8.15;;;;;;;6.37;100.00;100125.09;5043878;28;20036;-75
2022/11/04 03:39:40;;;;;;;24.15;7.90;;;;;;;6.31;100.00;100122.44;5041154;28;20033;-73
2022/11/04 03:42:19;;;;;;;24.80;7.45;;;;;;;6.26;100.00;100123.25;5044364;28;20492;-75
2022/11/04 03:44:52;;;;;;;25.20;7.70;;;;;;;6.29;100.00;100122.38;5038835;28;20108;-74
2022/11/04 03:47:19;;;;;;;23.67;7.53;;;;;;;6.28;100.00;100125.91;5043190;28;20551;-74
2022/11/04 03:49:47;;;;;;;23.27;7.80;;;;;;;6.20;100.00;100120.53;5041490;28;20034;-75
2022/11/04 03:52:13;;;;;;;22.65;6.95;;;;;;;6.15;100.00;100124.88;5043921;28;20075;-75
2022/11/04 03:54:38;;;;;;;23.90;7.65;;;;;;;6.20;100.00;100117.91;5039652;28;20099;-73
2022/11/04 03:57:19;;;;;;;22.77;7.00;;;;;;;6.15;100.00;100124.88;5046288;28;20021;-74
2022/11/04 03:59:55;;;;;;;25.23;7.40;;;;;;;6.13;100.00;100115.22;5040472;28;20091;-75
2022/11/04 04:02:45;;;;;;;23.40;7.07;;;;;;;6.06;100.00;100120.41;5044835;28;20120;-74
2022/11/04 04:05:19;;;;;;;23.42;6.88;;;;;;;6.02;100.00;100118.59;5038991;28;20041;-69
2022/11/04 04:07:51;;;;;;;22.58;6.95;;;;;;;6.03;100.00;100119.47;5045576;28;20079;-68
2022/11/04 04:10:40;;;;;;;22.60;7.00;;;;;;;5.97;100.00;100124.63;5042881;28;20487;-68
2022/11/04 04:13:28;;;;;;;24.27;7.45;;;;;;;5.92;100.00;100124.56;5038778;28;20100;-68
2022/11/04 04:16:10;;;;;;;24.52;7.55;;;;;;;5.90;100.00;100123.69;5043227;28;20041;-68
2022/11/04 04:18:43;;;;;;;23.35;6.88;;;;;;;5.88;100.00;100128.94;5038705;28;20030;-69
2022/11/04 04:21:10;;;;;;;;;;;;;;;5.82;100.00;100131.44;5039491;28;20049;-68
2022/11/04 04:29:09;;;;;;;22.90;7.20;;;;;;;5.64;100.00;100146.97;5038689;28;20546;-69
2022/11/04 04:31:49;;;;;;;23.15;7.65;;;;;;;5.74;100.00;100149.72;5045449;28;20110;-68
2022/11/04 04:34:27;;;;;;;24.38;7.60;;;;;;;5.66;100.00;100150.47;5040137;28;20032;-68
2022/11/04 04:36:55;;;;;;;24.58;7.30;;;;;;;5.49;100.00;100153.75;5043947;28;20032;-68
2022/11/04 04:45:21;;;;;;;25.48;7.50;;;;;;;5.27;100.00;100160.44;5003901;28;20038;-68
2022/11/04 04:47:46;;;;;;;22.73;7.57;;;;;;;5.18;100.00;100163.78;5002897;28;20049;-68
2022/11/04 04:50:17;;;;;;;25.35;7.63;;;;;;;5.19;100.00;100160.31;5000212;28;20446;-69
2022/11/04 04:52:47;;;;;;;25.55;7.97;;;;;;;5.19;100.00;100164.66;5003222;28;20030;-69
2022/11/04 04:55:13;;;;;;;24.30;8.25;;;;;;;5.17;100.00;100161.13;5000451;28;20030;-68
2022/11/04 04:57:38;;;;;;;26.00;8.38;;;;;;;5.18;100.00;100157.66;5003410;28;20038;-67
2022/11/04 05:00:07;;;;;;;26.25;9.00;;;;;;;5.22;100.00;100162.97;5000235;28;20089;-68
2022/11/04 05:02:32;;;;;;;29.95;10.80;;;;;;;5.29;100.00;100165.69;5002949;28;20125;-68
2022/11/04 05:04:58;;;;;;;30.40;10.80;;;;;;;5.35;100.00;100166.66;5000866;28;20128;-68
2022/11/04 05:07:24;;;;;;;30.58;10.93;;;;;;;5.37;100.00;100164.97;5001425;28;20486;-68
2022/11/04 05:09:49;;;;;;;31.02;11.85;;;;;;;5.32;100.00;100165.75;5002257;28;20042;-68
2022/11/04 05:12:14;;;;;;;32.13;11.25;;;;;;;5.32;100.00;100169.22;5000329;28;20061;-69
2022/11/04 05:14:40;;;;;;;33.22;10.93;;;;;;;5.25;100.00;100175.25;5003083;28;20025;-68
2022/11/04 05:17:05;;;;;;;30.35;11.15;;;;;;;5.28;100.00;100174.41;5036690;28;20064;-69
2022/11/04 05:19:30;;;;;;;30.70;12.60;;;;;;;5.30;100.00;100177.94;5044188;28;20032;-68
2022/11/04 05:21:56;;;;;;;30.83;11.13;;;;;;;5.35;100.00;100178.88;5042424;28;20017;-68
2022/11/04 05:24:22;;;;;;;25.63;10.38;;;;;;;5.29;100.00;100194.53;5042255;28;20132;-68
2022/11/04 05:26:47;;;;;;;33.92;11.70;;;;;;;5.27;100.00;100193.59;5043650;28;20029;-68
2022/11/04 05:29:12;;;;;;;28.30;10.80;;;;;;;5.30;100.00;100193.66;5041489;28;20029;-68
2022/11/04 05:31:38;;;;;;;29.77;11.30;;;;;;;5.32;100.00;100200.69;5044592;28;20055;-68
2022/11/04 05:34:04;;;;;;;28.88;11.43;;;;;;;5.34;100.00;100205.94;5041290;28;20040;-68
2022/11/04 05:36:31;;;;;;;28.45;10.95;;;;;;;5.35;100.00;100203.34;5043950;28;20096;-68
2022/11/04 05:38:57;;;;;;;30.02;11.05;;;;;;;5.35;100.00;100208.59;5042176;28;20032;-68
2022/11/04 05:41:26;;;;;;;29.63;11.48;;;;;;;5.40;100.00;100209.56;5042428;28;20025;-68
2022/11/04 05:43:56;;;;;;;30.10;11.38;;;;;;;5.41;100.00;100199.94;5043152;28;20514;-68
2022/11/04 05:46:23;;;;;;;32.38;12.05;;;;;;;5.43;100.00;100207.84;5042253;28;20046;-68
2022/11/04 05:48:48;;;;;;;31.40;11.98;;;;;;;5.42;100.00;100209.59;5043187;28;20036;-68
2022/11/04 05:51:16;;;;;;;30.13;12.00;;;;;;;5.48;100.00;100214.03;5041251;28;20461;-68
2022/11/04 05:53:41;;;;;;;31.00;12.55;;;;;;;5.49;100.00;100216.69;5044251;28;20025;-69
2022/11/04 05:56:07;;;;;;;32.15;12.80;;;;;;;5.48;100.00;100214.91;5036842;28;20113;-68
2022/11/04 05:58:32;;;;;;;35.15;13.45;;;;;;;5.45;100.00;100214.00;5044059;28;20025;-68
2022/11/04 06:01:23;;;;;;;31.50;12.48;;;;;;;5.42;100.00;100220.06;5041880;28;20025;-68
2022/11/04 06:03:49;;;;;;;35.40;13.73;;;;;;;5.43;100.00;100219.19;5039191;28;20033;-69
2022/11/04 06:06:14;;;;;;;33.42;13.52;;;;;;;5.40;100.00;100224.38;5043795;28;20417;-68
2022/11/04 06:08:40;;;;;;;35.17;13.90;;;;;;;5.36;100.00;100231.34;5040898;28;20068;-68
2022/11/04 06:11:05;;;;;;;36.50;13.82;;;;;;;5.31;100.00;100229.50;5043869;28;20052;-72
2022/11/04 06:13:30;;;;;;;32.10;13.25;;;;;;;5.29;100.00;100233.84;5041349;28;20065;-72
2022/11/04 06:15:55;;;;;;;32.60;12.75;;;;;;;5.28;100.00;100229.44;5042724;28;20018;-74
2022/11/04 06:18:21;;;;;;;32.25;13.43;;;;;;;5.30;100.00;100235.59;5034984;28;20076;-71
2022/11/04 06:20:46;;;;;;;33.22;14.05;;;;;;;5.33;100.00;100233.91;5045944;28;20078;-64
2022/11/04 06:23:12;;;;;;;35.83;13.82;;;;;;;5.35;100.00;100231.31;5043362;28;20029;-66
2022/11/04 06:25:37;;;;;;;34.28;14.27;;;;;;;5.34;100.00;100240.03;5040717;28;20477;-69
2022/11/04 06:28:02;;;;;;;34.85;14.02;;;;;;;5.27;100.00;100238.16;5041535;28;20079;-69
2022/11/04 06:30:28;;;;;;;33.88;13.25;;;;;;;5.22;100.00;100241.59;5041547;28;20029;-69
2022/11/04 06:32:53;;;;;;;32.33;13.60;;;;;;;5.14;100.00;100243.22;5042694;28;20074;-70
2022/11/04 06:35:18;;;;;;;35.50;14.07;;;;;;;5.10;100.00;100245.72;5043950;28;20022;-68
2022/11/04 06:37:44;;;;;;;33.97;13.45;;;;;;;5.06;100.00;100250.06;5040467;28;20028;-68
2022/11/04 06:40:09;;;;;;;33.17;13.32;;;;;;;5.03;100.00;100252.63;5047052;28;20055;-69
2022/11/04 06:42:36;;;;;;;32.55;12.63;;;;;;;4.96;100.00;100256.00;5045690;28;20112;-69
2022/11/04 06:45:01;;;;;;;35.15;13.27;;;;;;;4.88;100.00;100255.88;5045896;28;20026;-69
2022/11/04 06:47:26;;;;;;;31.27;13.05;;;;;;;4.91;100.00;100258.53;5046015;28;20364;-70
2022/11/04 06:49:51;;;;;;;36.10;13.38;;;;;;;4.81;100.00;100256.59;5037845;28;20396;-67
2022/11/04 06:52:17;;;;;;;30.95;13.27;;;;;;;4.83;100.00;100261.00;5038355;28;20056;-69
2022/11/04 06:54:42;;;;;;;33.50;13.30;;;;;;;4.82;100.00;100259.25;5046274;28;20060;-69
2022/11/04 06:57:09;;;;;;;30.30;12.88;;;;;;;4.80;100.00;100268.78;5046299;28;20018;-69
2022/11/04 06:59:35;;;;;;;30.15;12.98;;;;;;;4.82;100.00;100269.72;5045073;28;20029;-69
2022/11/04 07:02:00;;;;;;;33.85;13.73;;;;;;;4.87;100.00;100275.91;5046815;28;20032;-69
2022/11/04 07:04:25;;;;;;;30.35;13.07;;;;;;;4.98;100.00;100283.09;5043681;28;20503;-68
2022/11/04 07:06:50;;;;;;;31.85;12.23;;;;;;;5.02;100.00;100288.44;5047151;28;20033;-69
2022/11/04 07:09:16;;;;;;;28.58;11.88;;;;;;;5.22;100.00;100286.13;5044823;28;20116;-69
2022/11/04 07:11:42;;;;;;;29.48;12.20;;;;;;;5.31;100.00;100288.03;5045718;28;20464;-69
2022/11/04 07:14:08;;;;;;;32.05;13.20;;;;;;;5.41;100.00;100289.06;5045379;28;20032;-69
2022/11/04 07:16:34;;;;;;;31.25;13.00;;;;;;;5.58;100.00;100294.59;5044507;28;20472;-68
2022/11/04 07:18:59;;;;;;;31.15;13.20;;;;;;;5.69;100.00;100298.25;5046704;28;20083;-69
2022/11/04 07:21:25;;;;;;;36.40;14.10;;;;;;;5.83;100.00;100301.09;5043654;28;20018;-69
2022/11/04 07:23:50;;;;;;;29.73;13.57;;;;;;;5.88;100.00;100307.31;5047068;28;20445;-70
2022/11/04 07:26:16;;;;;;;31.00;13.00;;;;;;;6.01;100.00;100300.50;5044123;28;20438;-69
2022/11/04 07:28:41;;;;;;;32.08;13.60;;;;;;;6.11;100.00;100312.03;5045230;28;20374;-69
2022/11/04 07:31:09;;;;;;;32.00;13.20;;;;;;;6.15;100.00;100303.34;5045473;28;20067;-69
2022/11/04 07:33:34;;;;;;;32.55;14.27;;;;;;;6.19;100.00;100297.28;5044468;28;20029;-69
2022/11/04 07:36:10;;;;;;;31.25;13.93;;;;;;;6.24;100.00;100303.47;5045990;28;20091;-69
2022/11/04 07:38:35;;;;;;;32.42;13.93;;;;;;;6.26;100.00;100299.13;5044141;28;20542;-68
2022/11/04 07:41:01;;;;;;;33.10;14.27;;;;;;;6.31;100.00;100299.19;5046481;28;20029;-68
2022/11/04 07:43:28;;;;;;;34.97;15.48;;;;;;;6.36;100.00;100312.38;5043252;28;20414;-68
2022/11/04 07:46:03;;;;;;;32.95;14.60;;;;;;;6.43;100.00;100315.06;5038147;28;20033;-69
2022/11/04 07:48:29;;;;;;;34.45;15.10;;;;;;;6.49;100.00;100316.91;5040142;28;20754;-68
2022/11/04 07:50:56;;;;;;;34.88;17.45;;;;;;;6.56;100.00;100321.38;5046628;28;20017;-69
2022/11/04 07:53:22;;;;;;;32.42;15.10;;;;;;;6.66;100.00;100318.88;5042790;28;20021;-69
2022/11/04 07:55:49;;;;;;;32.83;14.13;;;;;;;6.74;100.00;100328.63;5046029;28;20055;-69
2022/11/04 07:58:15;;;;;;;34.22;13.93;;;;;;;6.81;100.00;100329.53;5043803;28;20029;-69
2022/11/04 08:00:40;;;;;;;33.17;13.85;;;;;;;6.82;100.00;100323.44;5044608;28;20022;-69
2022/11/04 08:03:06;;;;;;;32.72;14.65;;;;;;;6.86;100.00;100321.72;5045140;28;20029;-69
2022/11/04 08:05:31;;;;;;;33.92;14.82;;;;;;;6.95;100.00;100325.31;5042847;28;20037;-67
2022/11/04 08:07:56;;;;;;;34.20;15.75;;;;;;;7.01;100.00;100323.66;5046276;28;20682;-69
2022/11/04 08:10:22;;;;;;;33.20;16.20;;;;;;;7.17;100.00;100328.19;5043057;28;20505;-69
2022/11/04 08:12:47;;;;;;;33.03;16.23;;;;;;;7.49;100.00;100338.13;5045446;28;20504;-75
2022/11/04 08:15:13;;;;;;;32.75;15.68;;;;;;;7.64;100.00;100340.88;5043967;28;20021;-75
2022/11/04 08:17:39;;;;;;;32.65;16.02;;;;;;;7.88;100.00;100341.06;5044254;28;20030;-73
2022/11/04 08:20:04;;;;;;;33.50;15.80;;;;;;;8.14;100.00;100349.13;5043531;28;20025;-75
2022/11/04 08:22:30;;;;;;;33.40;15.82;;;;;;;8.34;100.00;100352.78;5042755;28;20032;-76
2022/11/04 08:24:55;;;;;;;34.58;15.88;;;;;;;8.63;100.00;100359.97;5045701;28;20384;-76
2022/11/04 08:27:22;;;;;;;34.10;15.82;;;;;;;8.75;100.00;100353.88;5042401;28;20025;-76
2022/11/04 08:29:47;;;;;;;36.15;15.90;;;;;;;8.75;100.00;100353.00;5044926;28;20457;-76
2022/11/04 08:32:12;;;;;;;32.40;15.32;;;;;;;8.90;100.00;100364.50;5043571;28;20032;-76
2022/11/04 08:34:38;;;;;;;35.03;15.82;;;;;;;8.92;100.00;100364.50;5043491;28;20026;-76
2022/11/04 08:37:04;;;;;;;31.65;15.27;;;;;;;8.87;100.00;100369.75;5044738;28;20430;-74
2022/11/04 08:39:29;;;;;;;34.15;15.15;;;;;;;8.99;100.00;100368.91;5042459;28;20022;-76
2022/11/04 08:41:55;;;;;;;32.88;15.32;;;;;;;9.19;100.00;100382.16;5045407;28;20112;-76
2022/11/04 08:44:21;;;;;;;34.50;15.60;;;;;;;9.41;100.00;100383.09;5042316;28;20017;-74
2022/11/04 08:46:47;;;;;;;33.95;14.32;;;;;;;9.52;100.00;100382.22;5044311;28;20025;-76
2022/11/04 08:49:13;;;;;;;29.20;13.23;;;;;;;9.36;100.00;100379.56;5043238;28;20029;-75
2022/11/04 08:51:41;;;;;;;29.10;12.40;;;;;;;8.89;100.00;100377.66;5043138;28;20362;-73
2022/11/04 08:54:07;;;;;;;28.00;12.07;;;;;;;8.68;100.00;100381.09;5044106;28;20025;-75
2022/11/04 08:56:35;;;;;;;30.42;12.82;;;;;;;8.51;100.00;100387.16;5042217;28;20377;-71
2022/11/04 08:59:03;;;;;;;28.80;13.10;;;;;;;8.44;100.00;100385.34;5044894;28;20017;-73
2022/11/04 09:01:30;;;;;;;30.13;13.43;;;;;;;8.42;100.00;100391.44;5041561;28;20116;-72
2022/11/04 09:03:55;;;;;;;28.98;13.40;;;;;;;8.37;100.00;100394.94;5044748;28;20028;-72
2022/11/04 09:06:27;;;;;;;29.55;13.57;;;;;;;8.43;100.00;100403.75;5041807;28;20022;-71
2022/11/04 09:09:00;;;;;;;29.38;13.38;;;;;;;8.52;100.00;100409.13;5043607;28;20052;-72
2022/11/04 09:11:26;;;;;;;30.63;13.75;;;;;;;8.53;100.00;100416.13;5038015;28;20072;-72
2022/11/04 09:13:52;;;;;;;32.20;14.10;;;;;;;8.78;100.00;100421.53;5044715;28;20056;-72
2022/11/04 09:16:17;;;;;;;28.88;13.07;;;;;;;8.82;100.00;100428.59;5042113;28;20058;-72
2022/11/04 09:18:43;;;;;;;28.70;12.75;;;;;;;8.95;100.00;100425.13;5043185;28;20028;-73
2022/11/04 09:21:09;;;;;;;28.65;12.40;;;;;;;8.87;100.00;100434.78;5043472;28;20048;-71
2022/11/04 09:23:34;;;;;;;24.70;11.13;;;;;;;8.81;100.00;100430.34;5042245;28;20080;-71
2022/11/04 09:26:08;;;;;;;25.98;11.32;;;;;;;8.84;100.00;100432.09;5044252;28;20025;-71
2022/11/04 09:28:34;;;;;;;25.95;10.82;;;;;;;8.84;100.00;100426.84;5041934;28;20476;-70
2022/11/04 09:31:03;;;;;;;25.63;10.85;;;;;;;8.89;100.00;100436.53;5044570;28;20027;-72
2022/11/04 09:33:29;;;;;;;25.80;11.20;;;;;;;9.01;100.00;100435.72;5041070;28;20040;-68
2022/11/04 09:35:56;;;;;;;27.17;11.70;;;;;;;9.05;100.00;100442.75;5044772;28;20029;-69
2022/11/04 09:38:22;;;;;;;28.08;11.95;;;;;;;9.15;100.00;100453.34;5041715;28;20055;-69
2022/11/04 09:40:49;;;;;;;24.63;10.52;;;;;;;9.15;100.00;100450.72;5043593;28;20035;-67
2022/11/04 09:43:24;;;;;;;26.73;10.65;;;;;;;9.22;100.00;100455.16;5042316;28;20096;-69
2022/11/04 09:45:49;;;;;;;25.05;10.38;;;;;;;9.10;100.00;100463.00;5044077;28;20025;-68
2022/11/04 09:48:37;;;;;;;25.30;10.20;;;;;;;9.21;100.00;100466.56;5041835;28;20025;-69
2022/11/04 09:51:05;;;;;;;26.10;10.38;;;;;;;9.29;100.00;100464.84;5038546;28;20049;-69
2022/11/04 09:53:37;;;;;;;23.67;10.35;;;;;;;9.31;100.00;100471.00;5044186;28;20036;-69
2022/11/04 09:56:12;;;;;;;28.10;9.93;;;;;;;9.40;100.00;100467.50;5041677;28;20034;-69
2022/11/04 09:58:38;;;;;;;23.77;10.02;;;;;;;9.46;100.00;100467.50;5043144;28;20017;-69
2022/11/04 10:01:40;;;;;;;24.60;10.15;;;;;;;9.57;100.00;100472.84;5041239;28;20032;-69
2022/11/04 10:04:20;;;;;;;25.97;9.97;;;;;;;9.67;100.00;100476.34;5039219;28;20060;-67
2022/11/04 10:07:36;;;;;;;25.15;9.90;;;;;;;9.83;100.00;100479.91;5041874;28;20792;-67
2022/11/04 10:10:08;;;;;;;24.42;10.40;;;;;;;10.10;100.00;100484.34;5042097;28;20092;-68
2022/11/04 10:13:00;;;;;;;23.38;9.13;;;;;;;10.32;100.00;100484.34;5045334;28;20044;-68
2022/11/04 10:16:03;;;;;;;24.13;8.90;;;;;;;10.52;100.00;100493.19;5045973;28;20486;-69
2022/11/04 10:18:41;;;;;;;24.23;8.75;;;;;;;10.58;100.00;100489.66;5039099;28;20045;-69
2022/11/04 10:21:25;;;;;;;22.15;9.18;;;;;;;10.90;100.00;100494.88;5043514;28;20033;-67
2022/11/04 10:24:06;;;;;;;22.90;7.75;;;;;;;11.09;100.00;100490.41;5042805;28;20041;-69
2022/11/04 10:26:50;;;;;;;25.80;8.43;;;;;;;11.47;100.00;100492.00;5039573;28;20033;-75
2022/11/04 10:29:33;;;;;;;22.33;8.32;;;;;;;11.74;100.00;100494.53;5043509;28;20104;-75
2022/11/04 10:32:01;;;;;;;22.27;8.05;;;;;;;11.69;100.00;100494.53;5038831;28;20033;-76
2022/11/04 10:34:45;;;;;;;21.95;7.85;;;;;;;11.86;100.00;100495.31;5042449;28;20507;-73
2022/11/04 10:37:14;;;;;;;22.42;7.53;;;;;;;12.27;100.00;100505.69;5042046;28;20042;-76
2022/11/04 10:39:44;;;;;;;23.17;7.82;;;;;;;12.47;100.00;100509.03;5044306;28;20036;-75
2022/11/04 10:42:17;;;;;;;22.30;8.05;;;;;;;12.63;100.00;100516.88;5043485;28;20026;-73
2022/11/04 10:44:45;;;;;;;21.60;8.23;;;;;;;12.56;100.00;100523.97;5043660;28;20045;-73
2022/11/04 10:47:19;;;;;;;21.60;7.93;;;;;;;12.68;100.00;100525.63;5045622;28;20025;-75
2022/11/04 10:49:59;;;;;;;22.00;8.15;;;;;;;12.69;100.00;100532.72;5045588;28;20402;-75
2022/11/04 10:52:25;;;;;;;22.50;8.20;;;;;;;12.63;100.00;100532.78;5040331;28;20096;-75
2022/11/04 10:54:50;;;;;;;22.48;8.82;;;;;;;12.71;100.00;100528.25;5046812;28;20025;-74
2022/11/04 10:57:19;;;;;;;23.20;8.48;;;;;;;12.87;100.00;100542.25;5045313;28;20017;-73
2022/11/04 11:00:04;;;;;;;21.67;8.35;;;;;;;13.35;100.00;100526.75;5046171;28;20025;-75
2022/11/04 11:02:35;;;;;;;22.23;8.60;;;;;;;13.67;100.00;100524.56;5040450;28;20030;-74
2022/11/04 11:05:22;;;;;;;23.30;8.70;;;;;;;14.25;100.00;100526.34;5040468;28;20045;-75
2022/11/04 11:07:54;;;;;;;21.48;8.00;;;;;;;15.49;100.00;100530.34;5044550;28;20484;-71
2022/11/04 11:10:31;;;;;;;21.60;7.90;;;;;;;15.95;100.00;100528.47;5046631;28;20021;-76
2022/11/04 11:13:03;;;;;;;23.08;8.00;;;;;;;16.78;100.00;100530.91;5040286;28;20437;-75
2022/11/04 11:15:33;;;;;;;20.88;8.10;;;;;;;17.99;100.00;100532.88;5040547;28;20021;-75
2022/11/04 11:18:05;;;;;;;21.42;7.78;;;;;;;18.42;100.00;100528.78;5040027;28;20026;-74
2022/11/04 11:20:32;;;;;;;21.02;7.60;;;;;;;17.22;100.00;100534.19;5039141;28;20075;-73
2022/11/04 11:22:58;;;;;;;21.70;7.38;;;;;;;16.61;100.00;100534.00;5047295;28;20025;-75
2022/11/04 11:25:28;;;;;;;23.80;7.68;;;;;;;17.55;100.00;100533.28;5043544;28;20037;-75
2022/11/04 11:27:59;;;;;;;21.75;7.60;;;;;;;18.09;100.00;100531.66;5046548;28;20055;-74
2022/11/04 11:30:27;;;;;;;20.23;7.00;;;;;;;18.06;100.00;100534.44;5043569;28;20029;-76
2022/11/04 11:33:02;;;;;;;18.98;6.78;;;;;;;19.47;100.00;100544.78;5046341;28;20059;-75
2022/11/04 11:35:40;;;;;;;18.77;6.32;;;;;;;18.83;100.00;100537.25;5039506;28;20032;-75
2022/11/04 11:38:17;;;;;;;21.00;6.72;;;;;;;17.81;100.00;100534.28;5041554;28;20030;-76
2022/11/04 11:40:44;;;;;;;19.60;6.25;;;;;;;17.40;100.00;100534.56;5045102;28;20017;-75
2022/11/04 11:43:31;;;;;;;19.83;6.45;;;;;;;17.76;100.00;100534.41;5044832;28;20029;-76
2022/11/04 11:45:59;;;;;;;19.75;5.90;;;;;;;16.92;100.00;100533.25;5039288;28;20033;-76
2022/11/04 11:48:37;;;;;;;19.98;6.10;;;;;;;16.50;100.00;100526.28;5046305;28;20025;-74
2022/11/04 11:51:03;;;;;;;19.83;6.93;;;;;;;16.18;100.00;100521.75;5040163;28;20048;-75